Map

Track Data

SID SEASON NUMBER BASIN SUBBASIN NAME ISO_TIME NATURE LAT LON WMO_WIND WMO_PRES WMO_AGENCY TRACK_TYPE DIST2LAND LANDFALL IFLAG USA_AGENCY USA_ATCF_ID USA_LAT USA_LON USA_RECORD USA_STATUS USA_WIND USA_PRES USA_SSHS USA_R34_NE USA_R34_SE USA_R34_SW USA_R34_NW USA_R50_NE USA_R50_SE USA_R50_SW USA_R50_NW USA_R64_NE USA_R64_SE USA_R64_SW USA_R64_NW USA_POCI USA_ROCI USA_RMW USA_EYE TOKYO_LAT TOKYO_LON TOKYO_GRADE TOKYO_WIND TOKYO_PRES TOKYO_R50_DIR TOKYO_R50_LONG TOKYO_R50_SHORT TOKYO_R30_DIR TOKYO_R30_LONG TOKYO_R30_SHORT TOKYO_LAND CMA_LAT CMA_LON CMA_CAT CMA_WIND CMA_PRES HKO_LAT HKO_LON HKO_CAT HKO_WIND HKO_PRES NEWDELHI_LAT NEWDELHI_LON NEWDELHI_GRADE NEWDELHI_WIND NEWDELHI_PRES NEWDELHI_CI NEWDELHI_DP NEWDELHI_POCI REUNION_LAT REUNION_LON REUNION_TYPE REUNION_WIND REUNION_PRES REUNION_TNUM REUNION_CI REUNION_RMW REUNION_R34_NE REUNION_R34_SE REUNION_R34_SW REUNION_R34_NW REUNION_R50_NE REUNION_R50_SE REUNION_R50_SW REUNION_R50_NW REUNION_R64_NE REUNION_R64_SE REUNION_R64_SW REUNION_R64_NW BOM_LAT BOM_LON BOM_TYPE BOM_WIND BOM_PRES BOM_TNUM BOM_CI BOM_RMW BOM_R34_NE BOM_R34_SE BOM_R34_SW BOM_R34_NW BOM_R50_NE BOM_R50_SE BOM_R50_SW BOM_R50_NW BOM_R64_NE BOM_R64_SE BOM_R64_SW BOM_R64_NW BOM_ROCI BOM_POCI BOM_EYE BOM_POS_METHOD BOM_PRES_METHOD NADI_LAT NADI_LON NADI_CAT NADI_WIND NADI_PRES WELLINGTON_LAT WELLINGTON_LON WELLINGTON_WIND WELLINGTON_PRES DS824_LAT DS824_LON DS824_STAGE DS824_WIND DS824_PRES TD9636_LAT TD9636_LON TD9636_STAGE TD9636_WIND TD9636_PRES TD9635_LAT TD9635_LON TD9635_WIND TD9635_PRES TD9635_ROCI NEUMANN_LAT NEUMANN_LON NEUMANN_CLASS NEUMANN_WIND NEUMANN_PRES MLC_LAT MLC_LON MLC_CLASS MLC_WIND MLC_PRES USA_GUST BOM_GUST BOM_GUST_PER REUNION_GUST REUNION_GUST_PER USA_SEAHGT USA_SEARAD_NE USA_SEARAD_SE USA_SEARAD_SW USA_SEARAD_NW STORM_SPEED STORM_DIR
1917276N13133 1917 46 WP MM NOT_NAMED 1917-10-03 09:00:00 NR 13.1000 133.400 main 859 780 __________O___ -1 13.1000 133.400 7 17 281
1917276N13133 1917 46 WP MM NOT_NAMED 1917-10-03 12:00:00 NR 13.2702 132.525 main 769 685 __________P___ -1 13.2702 132.525 7 17 281
1917276N13133 1917 46 WP MM NOT_NAMED 1917-10-03 15:00:00 NR 13.4309 131.679 main 685 606 __________P___ -1 13.4309 131.679 7 16 281
1917276N13133 1917 46 WP MM NOT_NAMED 1917-10-03 18:00:00 NR 13.5761 130.893 main 606 536 __________P___ -1 13.5761 130.893 7 15 281
1917276N13133 1917 46 WP MM NOT_NAMED 1917-10-03 21:00:00 NR 13.7000 130.200 main 536 479 __________O___ -1 13.7000 130.200 7 13 280
1917276N13133 1917 46 WP MM NOT_NAMED 1917-10-04 00:00:00 NR 13.7992 129.617 main 479 434 __________P___ -1 13.7992 129.617 7 11 280
1917276N13133 1917 46 WP MM NOT_NAMED 1917-10-04 03:00:00 NR 13.8782 129.117 main 434 395 __________P___ -1 13.8782 129.117 7 9 279
1917276N13133 1917 46 WP MM NOT_NAMED 1917-10-04 06:00:00 NR 13.9432 128.658 main 395 355 __________P___ -1 13.9432 128.658 7 9 278
1917276N13133 1917 46 WP MM NOT_NAMED 1917-10-04 09:00:00 NR 14.0000 128.200 main 355 312 __________O___ -1 14.0000 128.200 7 10 276
1917276N13133 1917 46 WP MM NOT_NAMED 1917-10-04 12:00:00 NR 14.0535 127.625 main 311 272 __________P___ -1 14.0535 127.625 7 11 275
1917276N13133 1917 46 WP MM NOT_NAMED 1917-10-04 15:00:00 NR 14.1007 127.052 main 272 234 __________P___ -1 14.1007 127.052 7 11 275
1917276N13133 1917 46 WP MM NOT_NAMED 1917-10-04 18:00:00 NR 14.1474 126.528 main 227 186 __________P___ -1 14.1474 126.528 7 9 276
1917276N13133 1917 46 WP MM NOT_NAMED 1917-10-04 21:00:00 NR 14.2000 126.100 main 186 157 __________O___ -1 14.2000 126.100 7 7 280
1917276N13133 1917 46 WP MM NOT_NAMED 1917-10-05 00:00:00 NR 14.2671 125.820 main 157 137 __________P___ -1 14.2671 125.820 7 5 288
1917276N13133 1917 46 WP MM NOT_NAMED 1917-10-05 03:00:00 NR 14.3417 125.637 main 137 131 __________P___ -1 14.3417 125.637 7 3 297
1917276N13133 1917 46 WP MM NOT_NAMED 1917-10-05 06:00:00 NR 14.4205 125.511 main 131 127 __________P___ -1 14.4205 125.511 7 3 304
1917276N13133 1917 46 WP MM NOT_NAMED 1917-10-05 09:00:00 NR 14.5000 125.400 main 127 118 __________O___ -1 14.5000 125.400 7 3 300
1917276N13133 1917 46 WP MM NOT_NAMED 1917-10-05 12:00:00 NR 14.5627 125.251 main 124 108 __________P___ -1 14.5627 125.251 7 3 294
1917276N13133 1917 46 WP MM NOT_NAMED 1917-10-05 15:00:00 NR 14.6274 125.107 main 108 108 __________P___ -1 14.6274 125.107 7 3 296
1917276N13133 1917 46 WP MM NOT_NAMED 1917-10-05 18:00:00 NR 14.7033 124.960 main 108 101 __________P___ -1 14.7033 124.960 7 3 300
1917276N13133 1917 46 WP MM NOT_NAMED 1917-10-05 21:00:00 NR 14.8000 124.800 main 104 99 __________O___ -1 14.8000 124.800 7 4 302
1917276N13133 1917 46 WP MM NOT_NAMED 1917-10-06 00:00:00 NR 14.9245 124.598 main 105 105 __________P___ -1 14.9245 124.598 7 5 304
1917276N13133 1917 46 WP MM NOT_NAMED 1917-10-06 03:00:00 NR 15.0701 124.385 main 123 123 __________P___ -1 15.0701 124.385 7 5 307
1917276N13133 1917 46 WP MM NOT_NAMED 1917-10-06 06:00:00 NR 15.2307 124.179 main 134 134 __________P___ -1 15.2307 124.179 7 5 312
1917276N13133 1917 46 WP MM NOT_NAMED 1917-10-06 09:00:00 NR 15.4000 124.000 main 157 157 __________O___ -1 15.4000 124.000 7 5 317
1917276N13133 1917 46 WP MM NOT_NAMED 1917-10-06 12:00:00 NR 15.5596 123.859 main 180 180 __________P___ -1 15.5596 123.859 7 4 323
1917276N13133 1917 46 WP MM NOT_NAMED 1917-10-06 15:00:00 NR 15.7274 123.747 main 169 163 __________P___ -1 15.7274 123.747 7 4 331
1917276N13133 1917 46 WP MM NOT_NAMED 1917-10-06 18:00:00 NR 15.9065 123.662 main 163 147 __________P___ -1 15.9065 123.662 7 4 339
1917276N13133 1917 46 WP MM NOT_NAMED 1917-10-06 21:00:00 NR 16.1000 123.600 main 147 125 __________O___ -1 16.1000 123.600 7 4 345
1917276N13133 1917 46 WP MM NOT_NAMED 1917-10-07 00:00:00 NR 16.3147 123.545 main 125 115 __________P___ -1 16.3147 123.545 7 5 349
1917276N13133 1917 46 WP MM NOT_NAMED 1917-10-07 03:00:00 NR 16.5425 123.512 main 115 107 __________P___ -1 16.5425 123.512 7 5 355
1917276N13133 1917 46 WP MM NOT_NAMED 1917-10-07 06:00:00 NR 16.7740 123.498 main 107 106 __________P___ -1 16.7740 123.498 7 5 357
1917276N13133 1917 46 WP MM NOT_NAMED 1917-10-07 09:00:00 NR 17.0000 123.500 main 106 106 __________O___ -1 17.0000 123.500 7 4 0
1917276N13133 1917 46 WP MM NOT_NAMED 1917-10-07 12:00:00 NR 17.1219 123.491 main 106 106 __________P___ -1 17.1219 123.491 7 3 358
1917276N13133 1917 46 WP MM NOT_NAMED 1917-10-07 15:00:00 NR 17.2500 123.498 main 111 111 __________P___ -1 17.2500 123.498 7 3 6
1917276N13133 1917 46 WP MM NOT_NAMED 1917-10-07 18:00:00 NR 17.4531 123.532 main 118 118 __________P___ -1 17.4531 123.532 7 6 10
1917276N13133 1917 46 WP MM NOT_NAMED 1917-10-07 21:00:00 NR 17.8000 123.600 main 139 137 __________O___ -1 17.8000 123.600 7 9 8
1917276N13133 1917 46 WP MM NOT_NAMED 1917-10-08 00:00:00 NR 18.3618 123.675 main 147 147 __________P___ -1 18.3618 123.675 7 13 8
1917276N13133 1917 46 WP MM NOT_NAMED 1917-10-08 03:00:00 NR 19.0698 123.789 main 176 176 __________P___ -1 19.0698 123.789 7 15 10
1917276N13133 1917 46 WP MM NOT_NAMED 1917-10-08 06:00:00 NR 19.8680 123.960 main 245 245 __________P___ -1 19.8680 123.960 7 17 13
1917276N13133 1917 46 WP MM NOT_NAMED 1917-10-08 09:00:00 NR 20.7000 124.200 main 325 325 __________O___ -1 20.7000 124.200 7 17 18
1917276N13133 1917 46 WP MM NOT_NAMED 1917-10-08 12:00:00 NR 21.5073 124.535 main 365 364 __________P___ -1 21.5073 124.535 7 18 23
1917276N13133 1917 46 WP MM NOT_NAMED 1917-10-08 15:00:00 NR 22.3306 124.938 main 369 369 __________P___ -1 22.3306 124.938 7 18 25
1917276N13133 1917 46 WP MM NOT_NAMED 1917-10-08 18:00:00 NR 23.1386 125.372 main 388 380 __________P___ -1 23.1386 125.372 7 18 27
1917276N13133 1917 46 WP MM NOT_NAMED 1917-10-08 21:00:00 NR 23.9000 125.800 main 400 399 __________O___ -1 23.9000 125.800 4 16 27
1917276N13133 1917 46 WP MM NOT_NAMED 1917-10-09 00:00:00 NR 24.5706 126.163 main 426 424 __________P___ -1 24.5706 126.163 4 15 27
1917276N13133 1917 46 WP MM NOT_NAMED 1917-10-09 03:00:00 NR 25.1942 126.511 main 453 453 __________P___ -1 25.1942 126.511 4 14 27
1917276N13133 1917 46 WP MM NOT_NAMED 1917-10-09 06:00:00 NR 25.7957 126.853 main 499 499 __________P___ -1 25.7957 126.853 4 14 27
1917276N13133 1917 46 WP MM NOT_NAMED 1917-10-09 09:00:00 NR 26.4000 127.200 main 543 536 __________O___ -1 26.4000 127.200 4 13 25
1917276N13133 1917 46 WP MM NOT_NAMED 1917-10-09 12:00:00 NR 26.9912 127.471 main 536 468 __________P___ -1 26.9912 127.471 4 13 23
1917276N13133 1917 46 WP MM NOT_NAMED 1917-10-09 15:00:00 NR 27.5977 127.761 main 464 391 __________P___ -1 27.5977 127.761 4 14 25
1917276N13133 1917 46 WP MM NOT_NAMED 1917-10-09 18:00:00 NR 28.2554 128.146 main 381 284 __________P___ -1 28.2554 128.146 4 16 31
1917276N13133 1917 46 WP MM NOT_NAMED 1917-10-09 21:00:00 NR 29.0000 128.700 main 284 159 __________O___ -1 29.0000 128.700 4 21 36
1917276N13133 1917 46 WP MM NOT_NAMED 1917-10-10 00:00:00 NR 29.9155 129.530 main 159 29 __________P___ -1 29.9155 129.530 4 25 40
1917276N13133 1917 46 WP MM NOT_NAMED 1917-10-10 03:00:00 NR 30.9043 130.544 main 22 0 __________P___ -1 30.9043 130.544 4 27 43
1917276N13133 1917 46 WP MM NOT_NAMED 1917-10-10 06:00:00 NR 31.8904 131.662 main 18 0 __________P___ -1 31.8904 131.662 4 27 45
1917276N13133 1917 46 WP MM NOT_NAMED 1917-10-10 09:00:00 NR 32.8000 132.800 main 0 0 __________O___ -1 32.8000 132.800 4 25 48
1917276N13133 1917 46 WP MM NOT_NAMED 1917-10-10 12:00:00 NR 33.5806 133.884 main 0 0 __________P___ -1 33.5806 133.884 4 23 51
1917276N13133 1917 46 WP MM NOT_NAMED 1917-10-10 15:00:00 NR 34.2509 134.915 main 18 0 __________P___ -1 34.2509 134.915 4 21 53
1917276N13133 1917 46 WP MM NOT_NAMED 1917-10-10 18:00:00 NR 34.8461 135.913 main 0 0 __________P___ -1 34.8461 135.913 4 20 55
1917276N13133 1917 46 WP MM NOT_NAMED 1917-10-10 21:00:00 NR 35.4000 136.900 main 0 __________O___ -1 35.4000 136.900 4 20 55

Digital Typhoon Data and Search

About IBTrACS Database

This database is a web-friendly format of International Best Track Archive for Climate Stewardship (IBTrACS), a global best track data archive curated by NOAA dating back to 1842.

Updated: 2021-10-08